createdAt,value
2018-01-25T00:00:54.908Z,9.65
2018-01-25T00:01:55.494Z,9.65
2018-01-25T00:02:56.066Z,9.58
2018-01-25T00:03:56.637Z,9.56
2018-01-25T00:04:57.208Z,9.41
2018-01-25T00:05:57.780Z,9.40
2018-01-25T00:06:58.349Z,9.40
2018-01-25T00:07:58.918Z,9.25
2018-01-25T00:08:59.488Z,9.34
2018-01-25T00:10:00.059Z,9.25
2018-01-25T00:11:00.626Z,9.23
2018-01-25T00:12:01.199Z,9.26
2018-01-25T00:13:01.769Z,9.25
2018-01-25T00:14:02.342Z,9.23
2018-01-25T00:15:02.926Z,9.18
2018-01-25T00:16:03.484Z,9.19
2018-01-25T00:17:04.067Z,9.16
2018-01-25T00:18:04.636Z,9.16
2018-01-25T00:19:05.208Z,9.21
2018-01-25T00:20:05.777Z,9.19
2018-01-25T00:21:06.347Z,9.16
2018-01-25T00:22:06.917Z,9.23
2018-01-25T00:23:07.505Z,9.16
2018-01-25T00:24:08.075Z,9.16
2018-01-25T00:25:08.641Z,9.16
2018-01-25T00:26:09.212Z,9.19
2018-01-25T00:27:09.782Z,9.21
2018-01-25T00:28:10.353Z,9.18
2018-01-25T00:29:10.924Z,9.21
2018-01-25T00:30:11.495Z,9.19
2018-01-25T00:31:12.066Z,9.10
2018-01-25T00:32:12.636Z,9.14
2018-01-25T00:33:13.206Z,9.04
2018-01-25T00:34:13.774Z,9.19
2018-01-25T00:35:14.343Z,9.06
2018-01-25T00:36:14.913Z,9.10
2018-01-25T00:37:15.483Z,9.10
2018-01-25T00:38:16.065Z,9.11
2018-01-25T00:39:16.635Z,9.11
2018-01-25T00:40:17.204Z,9.08
2018-01-25T00:41:17.773Z,9.04
2018-01-25T00:42:18.343Z,9.08
2018-01-25T00:43:18.912Z,9.10
2018-01-25T00:44:19.482Z,9.10
2018-01-25T00:45:20.052Z,9.14
2018-01-25T00:46:20.621Z,9.04
2018-01-25T00:47:21.193Z,9.02
2018-01-25T00:48:21.764Z,9.03
2018-01-25T00:49:22.334Z,9.02
2018-01-25T00:50:22.903Z,9.03
2018-01-25T00:51:23.486Z,9.02
2018-01-25T00:52:24.058Z,9.03
2018-01-25T00:53:24.628Z,9.04
2018-01-25T00:54:25.197Z,9.00
2018-01-25T00:55:25.780Z,9.03
2018-01-25T00:56:26.364Z,8.94
2018-01-25T00:57:26.934Z,8.97
2018-01-25T00:58:27.516Z,8.95
2018-01-25T00:59:28.089Z,8.94
2018-01-25T01:00:28.660Z,8.94
2018-01-25T01:01:29.231Z,8.94
2018-01-25T01:02:29.815Z,8.87
2018-01-25T01:03:30.383Z,8.91
2018-01-25T01:04:30.955Z,8.89
2018-01-25T01:05:31.560Z,8.82
2018-01-25T01:06:32.095Z,8.84
2018-01-25T01:07:32.665Z,8.85
2018-01-25T01:08:33.233Z,8.88
2018-01-25T01:09:33.804Z,8.79
2018-01-25T01:10:34.373Z,8.85
2018-01-25T01:11:34.943Z,8.92
2018-01-25T01:12:35.514Z,8.87
2018-01-25T01:13:36.086Z,8.81
2018-01-25T01:14:36.655Z,8.88
2018-01-25T01:15:37.224Z,8.85
2018-01-25T01:16:37.807Z,8.74
2018-01-25T01:17:38.377Z,8.81
2018-01-25T01:18:38.948Z,8.81
2018-01-25T01:19:39.518Z,8.85
2018-01-25T01:20:40.087Z,8.87
2018-01-25T01:21:40.656Z,8.81
2018-01-25T01:22:41.225Z,8.74
2018-01-25T01:23:41.796Z,8.79
2018-01-25T01:24:42.367Z,8.82
2018-01-25T01:25:42.939Z,8.87
2018-01-25T01:26:43.508Z,8.85
2018-01-25T01:27:44.078Z,8.82
2018-01-25T01:28:44.647Z,8.73
2018-01-25T01:29:45.216Z,8.73
2018-01-25T01:30:45.785Z,8.70
2018-01-25T01:31:46.353Z,8.78
2018-01-25T01:32:46.923Z,8.79
2018-01-25T01:33:47.493Z,8.82
2018-01-25T01:34:48.064Z,8.73
2018-01-25T01:35:48.632Z,8.71
2018-01-25T01:36:49.214Z,8.73
2018-01-25T01:37:49.784Z,8.79
2018-01-25T01:38:50.355Z,8.73
2018-01-25T01:39:50.926Z,8.74
2018-01-25T01:40:51.494Z,8.73
2018-01-25T01:41:52.065Z,8.78
2018-01-25T01:42:52.633Z,8.73
2018-01-25T01:43:53.203Z,8.73
2018-01-25T01:44:53.772Z,8.70
2018-01-25T01:45:54.340Z,8.71
2018-01-25T01:46:54.908Z,8.74
2018-01-25T01:47:55.490Z,8.70
2018-01-25T01:48:56.047Z,8.69
2018-01-25T01:49:56.616Z,8.73
2018-01-25T01:50:57.199Z,8.66
2018-01-25T01:51:57.784Z,8.67
2018-01-25T01:52:58.354Z,8.63
2018-01-25T01:53:58.922Z,8.61
2018-01-25T01:54:59.490Z,8.70
2018-01-25T01:56:00.059Z,8.64
2018-01-25T01:57:00.627Z,8.64
2018-01-25T01:58:01.196Z,8.67
2018-01-25T01:59:01.765Z,8.64
2018-01-25T02:00:02.336Z,8.56
2018-01-25T02:01:02.906Z,8.63
2018-01-25T02:02:03.477Z,8.66
2018-01-25T02:03:04.061Z,8.69
2018-01-25T02:04:04.631Z,8.69
2018-01-25T02:05:05.200Z,8.67
2018-01-25T02:06:05.772Z,8.67
2018-01-25T02:07:06.342Z,8.63
2018-01-25T02:08:06.912Z,8.66
2018-01-25T02:09:07.480Z,8.64
2018-01-25T02:10:08.050Z,8.73
2018-01-25T02:11:08.618Z,8.61
2018-01-25T02:12:09.187Z,8.60
2018-01-25T02:13:09.759Z,8.60
2018-01-25T02:14:10.329Z,8.64
2018-01-25T02:15:10.899Z,8.63
2018-01-25T02:16:11.470Z,8.64
2018-01-25T02:17:12.040Z,8.61
2018-01-25T02:18:12.625Z,8.66
2018-01-25T02:19:13.193Z,8.64
2018-01-25T02:20:13.763Z,8.61
2018-01-25T02:21:14.332Z,8.61
2018-01-25T02:22:14.900Z,8.61
2018-01-25T02:23:15.469Z,8.60
2018-01-25T02:24:16.053Z,8.61
2018-01-25T02:25:16.623Z,8.64
2018-01-25T02:26:17.208Z,8.56
2018-01-25T02:27:17.778Z,8.61
2018-01-25T02:28:18.348Z,8.60
2018-01-25T02:29:18.917Z,8.61
2018-01-25T02:30:19.488Z,8.61
2018-01-25T02:31:20.059Z,8.63
2018-01-25T02:32:20.629Z,8.61
2018-01-25T02:33:21.200Z,8.60
2018-01-25T02:34:21.769Z,8.66
2018-01-25T02:35:22.340Z,8.64
2018-01-25T02:36:22.911Z,8.66
2018-01-25T02:37:23.496Z,8.60
2018-01-25T02:38:24.062Z,8.61
2018-01-25T02:39:24.632Z,8.61
2018-01-25T02:40:25.215Z,8.60
2018-01-25T02:41:25.789Z,8.56
2018-01-25T02:42:26.369Z,8.60
2018-01-25T02:43:26.938Z,8.60
2018-01-25T02:44:27.510Z,8.58
2018-01-25T02:45:28.080Z,8.56
2018-01-25T02:46:28.648Z,8.60
2018-01-25T02:47:29.218Z,8.58
2018-01-25T02:48:29.786Z,8.60
2018-01-25T02:49:30.356Z,8.52
2018-01-25T02:50:30.927Z,8.48
2018-01-25T02:51:31.510Z,8.51
2018-01-25T02:52:32.080Z,8.63
2018-01-25T02:53:32.652Z,8.61
2018-01-25T02:54:33.222Z,8.61
2018-01-25T02:55:33.791Z,8.58
2018-01-25T02:56:34.364Z,8.48
2018-01-25T02:57:34.943Z,8.52
2018-01-25T02:58:35.515Z,8.53
2018-01-25T02:59:36.085Z,8.58
2018-01-25T03:00:36.655Z,8.51
2018-01-25T03:01:37.224Z,8.51
2018-01-25T03:02:37.793Z,8.51
2018-01-25T03:03:38.363Z,8.53
2018-01-25T03:04:38.938Z,8.51
2018-01-25T03:05:39.520Z,8.51
2018-01-25T03:06:40.087Z,8.52
2018-01-25T03:07:40.656Z,8.56
2018-01-25T03:08:41.227Z,8.52
2018-01-25T03:09:41.799Z,8.55
2018-01-25T03:10:42.382Z,8.48
2018-01-25T03:11:42.953Z,8.55
2018-01-25T03:12:43.524Z,8.53
2018-01-25T03:13:44.093Z,8.52
2018-01-25T03:14:44.663Z,8.64
2018-01-25T03:15:45.232Z,8.49
2018-01-25T03:16:45.801Z,8.49
2018-01-25T03:17:46.371Z,8.58
2018-01-25T03:18:46.941Z,8.51
2018-01-25T03:19:47.508Z,8.55
2018-01-25T03:20:48.079Z,8.52
2018-01-25T03:21:48.650Z,8.52
2018-01-25T03:22:49.221Z,8.49
2018-01-25T03:23:49.793Z,8.55
2018-01-25T03:24:50.362Z,8.45
2018-01-25T03:25:50.936Z,8.52
2018-01-25T03:26:51.501Z,8.49
2018-01-25T03:27:52.070Z,8.51
2018-01-25T03:28:52.639Z,8.49
2018-01-25T03:29:53.209Z,8.48
2018-01-25T03:30:53.793Z,8.46
2018-01-25T03:31:54.361Z,8.51
2018-01-25T03:32:54.931Z,8.46
2018-01-25T03:33:55.503Z,8.48
2018-01-25T03:34:56.072Z,8.48
2018-01-25T03:35:56.644Z,8.49
2018-01-25T03:36:57.213Z,8.49
2018-01-25T03:37:57.797Z,8.45
2018-01-25T03:38:58.368Z,8.48
2018-01-25T03:39:58.938Z,8.42
2018-01-25T03:40:59.513Z,8.46
2018-01-25T03:42:00.075Z,8.49
2018-01-25T03:43:00.643Z,8.44
2018-01-25T03:44:01.213Z,8.37
2018-01-25T03:45:01.783Z,8.49
2018-01-25T03:46:02.351Z,8.49
2018-01-25T03:47:02.935Z,8.45
2018-01-25T03:48:03.504Z,8.42
2018-01-25T03:49:04.075Z,8.44
2018-01-25T03:50:04.643Z,8.44
2018-01-25T03:51:05.214Z,8.41
2018-01-25T03:52:05.786Z,8.38
2018-01-25T03:53:06.357Z,8.46
2018-01-25T03:54:06.927Z,8.44
2018-01-25T03:55:07.497Z,8.42
2018-01-25T03:56:08.068Z,8.42
2018-01-25T03:57:08.637Z,8.36
2018-01-25T03:58:09.220Z,8.27
2018-01-25T03:59:09.790Z,8.37
2018-01-25T04:00:10.359Z,8.41
2018-01-25T04:01:10.927Z,8.34
2018-01-25T04:02:11.497Z,8.36
2018-01-25T04:03:12.067Z,8.36
2018-01-25T04:04:12.637Z,8.38
2018-01-25T04:05:13.209Z,8.30
2018-01-25T04:06:13.777Z,8.42
2018-01-25T04:07:14.367Z,8.36
2018-01-25T04:08:14.931Z,8.38
2018-01-25T04:09:15.500Z,8.31
2018-01-25T04:10:16.070Z,8.30
2018-01-25T04:11:16.639Z,8.33
2018-01-25T04:12:17.208Z,8.36
2018-01-25T04:13:17.776Z,8.34
2018-01-25T04:14:18.345Z,8.33
2018-01-25T04:15:18.916Z,8.34
2018-01-25T04:16:19.487Z,8.33
2018-01-25T04:17:20.057Z,8.38
2018-01-25T04:18:20.627Z,8.31
2018-01-25T04:19:21.198Z,8.33
2018-01-25T04:20:21.768Z,8.38
2018-01-25T04:21:22.339Z,8.30
2018-01-25T04:22:22.909Z,8.37
2018-01-25T04:23:23.478Z,8.37
2018-01-25T04:24:24.050Z,8.33
2018-01-25T04:25:24.620Z,8.33
2018-01-25T04:26:25.194Z,8.36
2018-01-25T04:27:25.761Z,8.34
2018-01-25T04:28:26.331Z,8.34
2018-01-25T04:29:26.901Z,8.27
2018-01-25T04:30:27.471Z,8.36
2018-01-25T04:31:28.040Z,8.30
2018-01-25T04:32:28.611Z,8.31
2018-01-25T04:33:29.195Z,8.36
2018-01-25T04:34:29.764Z,8.34
2018-01-25T04:35:30.334Z,8.36
2018-01-25T04:36:30.917Z,8.31
2018-01-25T04:37:31.488Z,8.28
2018-01-25T04:38:32.059Z,8.31
2018-01-25T04:39:32.631Z,8.30
2018-01-25T04:40:33.200Z,8.30
2018-01-25T04:41:33.776Z,8.28
2018-01-25T04:42:34.340Z,8.28
2018-01-25T04:43:34.909Z,8.28
2018-01-25T04:44:35.479Z,8.28
2018-01-25T04:45:36.065Z,8.24
2018-01-25T04:46:36.634Z,8.33
2018-01-25T04:47:37.202Z,8.30
2018-01-25T04:48:37.771Z,8.27
2018-01-25T04:49:38.340Z,8.24
2018-01-25T04:50:38.911Z,8.33
2018-01-25T04:51:39.482Z,8.34
2018-01-25T04:52:40.051Z,8.31
2018-01-25T04:53:40.624Z,8.27
2018-01-25T04:54:41.193Z,8.33
2018-01-25T04:55:41.763Z,8.30
2018-01-25T04:56:42.331Z,8.34
2018-01-25T04:57:42.913Z,8.30
2018-01-25T04:58:43.469Z,8.20
2018-01-25T04:59:44.040Z,8.24
2018-01-25T05:00:44.611Z,8.27
2018-01-25T05:01:45.179Z,8.24
2018-01-25T05:02:45.751Z,8.20
2018-01-25T05:03:46.319Z,8.24
2018-01-25T05:04:46.889Z,8.26
2018-01-25T05:05:47.457Z,8.27
2018-01-25T05:06:48.026Z,8.30
2018-01-25T05:07:48.596Z,8.26
2018-01-25T05:08:49.179Z,8.23
2018-01-25T05:09:49.747Z,8.30
2018-01-25T05:10:50.316Z,8.23
2018-01-25T05:11:50.885Z,8.33
2018-01-25T05:12:51.457Z,8.19
2018-01-25T05:13:52.023Z,8.26
2018-01-25T05:14:52.592Z,8.33
2018-01-25T05:15:53.161Z,8.19
2018-01-25T05:16:53.733Z,8.16
2018-01-25T05:17:54.302Z,8.23
2018-01-25T05:18:54.872Z,8.23
2018-01-25T05:19:55.442Z,8.24
2018-01-25T05:20:56.012Z,8.27
2018-01-25T05:21:56.582Z,8.20
2018-01-25T05:22:57.151Z,8.28
2018-01-25T05:23:57.719Z,8.26
2018-01-25T05:24:58.289Z,8.26
2018-01-25T05:25:58.861Z,8.23
2018-01-25T05:26:59.429Z,8.15
2018-01-25T05:28:00.008Z,8.18
2018-01-25T05:29:00.569Z,8.23
2018-01-25T05:30:01.140Z,8.20
2018-01-25T05:31:01.707Z,8.23
2018-01-25T05:32:02.276Z,8.19
2018-01-25T05:33:02.846Z,8.24
2018-01-25T05:34:03.415Z,8.24
2018-01-25T05:35:03.984Z,8.20
2018-01-25T05:36:04.555Z,8.19
2018-01-25T05:37:05.126Z,8.19
2018-01-25T05:38:05.697Z,8.19
2018-01-25T05:39:06.268Z,8.23
2018-01-25T05:40:06.838Z,8.23
2018-01-25T05:41:07.408Z,8.18
2018-01-25T05:42:07.977Z,8.16
2018-01-25T05:43:08.548Z,8.13
2018-01-25T05:44:09.119Z,8.12
2018-01-25T05:45:09.689Z,8.13
2018-01-25T05:46:10.261Z,8.18
2018-01-25T05:47:10.831Z,8.18
2018-01-25T05:48:11.400Z,8.09
2018-01-25T05:49:11.970Z,8.13
2018-01-25T05:50:12.554Z,8.12
2018-01-25T05:51:13.123Z,8.12
2018-01-25T05:52:13.692Z,8.09
2018-01-25T05:53:14.261Z,8.13
2018-01-25T05:54:14.833Z,8.12
2018-01-25T05:55:15.404Z,8.15
2018-01-25T05:56:15.988Z,8.13
2018-01-25T05:57:16.568Z,8.16
2018-01-25T05:58:17.130Z,8.08
2018-01-25T05:59:17.701Z,8.16
2018-01-25T06:00:18.269Z,8.16
2018-01-25T06:01:18.839Z,8.13
2018-01-25T06:02:19.408Z,8.15
2018-01-25T06:03:19.976Z,8.09
2018-01-25T06:04:20.547Z,8.13
2018-01-25T06:05:21.130Z,8.13
2018-01-25T06:06:21.698Z,8.12
2018-01-25T06:07:22.269Z,8.10
2018-01-25T06:08:22.840Z,8.12
2018-01-25T06:09:23.411Z,8.09
2018-01-25T06:10:23.983Z,8.06
2018-01-25T06:11:24.568Z,8.09
2018-01-25T06:12:25.193Z,8.12
2018-01-25T06:13:25.706Z,8.08
2018-01-25T06:14:26.277Z,8.01
2018-01-25T06:15:26.847Z,8.06
2018-01-25T06:16:27.417Z,8.01
2018-01-25T06:17:27.986Z,7.94
2018-01-25T06:18:28.555Z,8.03
2018-01-25T06:19:29.127Z,7.94
2018-01-25T06:20:29.698Z,7.94
2018-01-25T06:21:30.268Z,8.00
2018-01-25T06:22:30.837Z,8.00
2018-01-25T06:23:31.406Z,7.88
2018-01-25T06:24:31.975Z,7.85
2018-01-25T06:25:32.559Z,7.94
2018-01-25T06:26:33.128Z,7.97
2018-01-25T06:27:33.699Z,7.91
2018-01-25T06:28:34.267Z,7.91
2018-01-25T06:29:34.835Z,7.88
2018-01-25T06:30:35.404Z,7.83
2018-01-25T06:31:35.973Z,7.77
2018-01-25T06:32:36.544Z,7.91
2018-01-25T06:33:37.126Z,7.88
2018-01-25T06:34:37.695Z,7.90
2018-01-25T06:35:38.263Z,7.90
2018-01-25T06:36:38.833Z,7.88
2018-01-25T06:37:39.402Z,7.85
2018-01-25T06:38:39.974Z,7.91
2018-01-25T06:39:40.545Z,7.80
2018-01-25T06:40:41.118Z,7.90
2018-01-25T06:41:41.688Z,7.85
2018-01-25T06:42:42.259Z,7.83
2018-01-25T06:43:42.841Z,7.83
2018-01-25T06:44:43.411Z,7.83
2018-01-25T06:45:43.996Z,7.83
2018-01-25T06:46:44.566Z,7.88
2018-01-25T06:47:45.135Z,7.85
2018-01-25T06:48:45.704Z,7.88
2018-01-25T06:49:46.287Z,7.85
2018-01-25T06:50:46.858Z,7.82
2018-01-25T06:51:47.424Z,7.85
2018-01-25T06:52:47.995Z,7.76
2018-01-25T06:53:48.566Z,7.73
2018-01-25T06:54:49.136Z,7.70
2018-01-25T06:55:49.705Z,7.82
2018-01-25T06:56:50.277Z,7.76
2018-01-25T06:57:50.845Z,7.67
2018-01-25T06:58:51.415Z,7.70
2018-01-25T06:59:51.985Z,7.80
2018-01-25T07:00:52.554Z,7.72
2018-01-25T07:01:53.124Z,7.73
2018-01-25T07:02:53.693Z,7.69
2018-01-25T07:03:54.262Z,7.72
2018-01-25T07:04:54.832Z,7.69
2018-01-25T07:05:55.404Z,7.67
2018-01-25T07:06:55.972Z,7.67
2018-01-25T07:07:56.544Z,7.73
2018-01-25T07:08:57.113Z,7.61
2018-01-25T07:09:57.682Z,7.67
2018-01-25T07:10:58.252Z,7.61
2018-01-25T07:11:58.822Z,7.66
2018-01-25T07:12:59.393Z,7.58
2018-01-25T07:13:59.962Z,7.67
2018-01-25T07:15:00.533Z,7.54
2018-01-25T07:16:01.108Z,7.58
2018-01-25T07:17:01.688Z,7.56
2018-01-25T07:18:02.261Z,7.54
2018-01-25T07:19:02.829Z,7.58
2018-01-25T07:20:03.397Z,7.61
2018-01-25T07:21:03.966Z,7.58
2018-01-25T07:22:04.535Z,7.54
2018-01-25T07:23:05.104Z,7.67
2018-01-25T07:24:05.673Z,7.66
2018-01-25T07:25:06.242Z,7.51
2018-01-25T07:26:06.813Z,7.67
2018-01-25T07:27:07.384Z,7.60
2018-01-25T07:28:07.954Z,7.51
2018-01-25T07:29:08.523Z,7.50
2018-01-25T07:30:09.092Z,7.57
2018-01-25T07:31:09.661Z,7.51
2018-01-25T07:32:10.231Z,7.53
2018-01-25T07:33:10.801Z,7.42
2018-01-25T07:34:11.372Z,7.54
2018-01-25T07:35:11.942Z,7.56
2018-01-25T07:36:12.514Z,7.57
2018-01-25T07:37:13.083Z,7.53
2018-01-25T07:38:13.654Z,7.51
2018-01-25T07:39:14.223Z,7.53
2018-01-25T07:40:14.795Z,7.51
2018-01-25T07:41:15.365Z,7.56
2018-01-25T07:42:15.937Z,7.53
2018-01-25T07:43:16.507Z,7.53
2018-01-25T07:44:17.080Z,7.57
2018-01-25T07:45:17.663Z,7.57
2018-01-25T07:46:18.235Z,7.51
2018-01-25T07:47:18.804Z,7.50
2018-01-25T07:48:19.375Z,7.45
2018-01-25T07:49:19.943Z,7.53
2018-01-25T07:50:20.514Z,7.51
2018-01-25T07:51:21.088Z,7.54
2018-01-25T07:52:21.659Z,7.56
2018-01-25T07:53:22.243Z,7.53
2018-01-25T07:54:22.870Z,7.47
2018-01-25T07:55:23.400Z,7.53
2018-01-25T07:56:23.970Z,7.51
2018-01-25T07:57:24.542Z,7.54
2018-01-25T07:58:25.112Z,7.56
2018-01-25T07:59:25.681Z,7.58
2018-01-25T08:00:26.252Z,7.73
2018-01-25T08:01:26.824Z,7.66
2018-01-25T08:02:27.397Z,7.66
2018-01-25T08:03:27.967Z,7.61
2018-01-25T08:04:28.536Z,7.66
2018-01-25T08:05:29.105Z,7.69
2018-01-25T08:06:29.677Z,7.70
2018-01-25T08:07:30.250Z,7.57
2018-01-25T08:08:30.821Z,7.67
2018-01-25T08:09:31.409Z,7.72
2018-01-25T08:10:31.979Z,7.63
2018-01-25T08:11:32.549Z,7.67
2018-01-25T08:12:33.119Z,7.60
2018-01-25T08:13:33.689Z,7.67
2018-01-25T08:14:34.259Z,7.67
2018-01-25T08:15:34.832Z,7.69
2018-01-25T08:16:35.405Z,7.63
2018-01-25T08:17:35.975Z,7.72
2018-01-25T08:18:36.546Z,7.77
2018-01-25T08:19:37.131Z,7.72
2018-01-25T08:20:37.700Z,7.72
2018-01-25T08:21:38.272Z,7.67
2018-01-25T08:22:38.844Z,7.77
2018-01-25T08:23:39.418Z,7.85
2018-01-25T08:24:40.004Z,7.72
2018-01-25T08:25:40.589Z,7.73
2018-01-25T08:26:41.162Z,7.70
2018-01-25T08:27:41.734Z,7.75
2018-01-25T08:28:42.306Z,7.70
2018-01-25T08:29:42.890Z,7.73
2018-01-25T08:30:43.451Z,7.83
2018-01-25T08:31:44.023Z,7.73
2018-01-25T08:32:44.796Z,7.80
2018-01-25T08:33:45.368Z,7.80
2018-01-25T08:34:45.952Z,7.83
2018-01-25T08:35:46.527Z,7.83
2018-01-25T08:36:47.173Z,7.83
2018-01-25T08:37:47.684Z,7.88
2018-01-25T08:38:48.256Z,7.88
2018-01-25T08:39:48.828Z,7.87
2018-01-25T08:40:49.401Z,7.87
2018-01-25T08:41:50.024Z,7.87
2018-01-25T08:42:50.559Z,7.85
2018-01-25T08:43:51.130Z,7.94
2018-01-25T08:44:51.703Z,7.88
2018-01-25T08:45:52.274Z,7.90
2018-01-25T08:46:52.847Z,7.87
2018-01-25T08:47:53.421Z,7.93
2018-01-25T08:48:53.993Z,7.90
2018-01-25T08:49:54.565Z,7.95
2018-01-25T08:50:55.137Z,7.93
2018-01-25T08:51:55.708Z,7.97
2018-01-25T08:52:56.281Z,7.97
2018-01-25T08:53:56.851Z,8.03
2018-01-25T08:54:57.423Z,7.97
2018-01-25T08:55:58.007Z,8.03
2018-01-25T08:56:58.578Z,8.03
2018-01-25T08:57:59.151Z,8.00
2018-01-25T08:58:59.723Z,8.00
2018-01-25T09:00:00.294Z,8.01
2018-01-25T09:01:00.866Z,8.01
2018-01-25T09:02:01.437Z,8.12
2018-01-25T09:03:02.026Z,8.06
2018-01-25T09:04:02.584Z,8.12
2018-01-25T09:05:03.155Z,8.13
2018-01-25T09:06:03.727Z,8.15
2018-01-25T09:07:04.301Z,8.06
2018-01-25T09:08:04.873Z,8.15
2018-01-25T09:09:05.451Z,8.06
2018-01-25T09:10:06.018Z,8.16
2018-01-25T09:11:06.592Z,8.20
2018-01-25T09:12:07.165Z,8.24
2018-01-25T09:13:07.736Z,8.23
2018-01-25T09:14:08.308Z,8.19
2018-01-25T09:15:08.879Z,8.19
2018-01-25T09:16:09.450Z,8.20
2018-01-25T09:17:10.036Z,8.26
2018-01-25T09:18:10.610Z,8.23
2018-01-25T09:19:11.187Z,8.15
2018-01-25T09:20:11.753Z,8.18
2018-01-25T09:21:12.324Z,8.23
2018-01-25T09:22:12.896Z,8.19
2018-01-25T09:23:13.469Z,8.19
2018-01-25T09:24:14.042Z,8.20
2018-01-25T09:25:14.613Z,8.15
2018-01-25T09:26:15.185Z,8.19
2018-01-25T09:27:15.758Z,8.34
2018-01-25T09:28:16.332Z,8.33
2018-01-25T09:29:16.904Z,8.33
2018-01-25T09:30:17.475Z,8.33
2018-01-25T09:31:18.046Z,8.41
2018-01-25T09:32:18.618Z,8.28
2018-01-25T09:33:19.191Z,8.31
2018-01-25T09:34:19.764Z,8.30
2018-01-25T09:35:20.335Z,8.31
2018-01-25T09:36:20.920Z,8.38
2018-01-25T09:37:21.508Z,8.37
2018-01-25T09:38:22.080Z,8.36
2018-01-25T09:39:22.653Z,8.41
2018-01-25T09:40:23.227Z,8.42
2018-01-25T09:41:23.799Z,8.33
2018-01-25T09:42:24.376Z,8.42
2018-01-25T09:43:25.001Z,8.37
2018-01-25T09:44:25.526Z,8.30
2018-01-25T09:45:26.096Z,8.42
2018-01-25T09:46:26.715Z,8.44
2018-01-25T09:47:27.241Z,8.45
2018-01-25T09:48:27.814Z,8.38
2018-01-25T09:49:28.386Z,8.42
2018-01-25T09:50:28.959Z,8.44
2018-01-25T09:51:29.536Z,8.51
2018-01-25T09:52:30.106Z,8.49
2018-01-25T09:53:30.678Z,8.41
2018-01-25T09:54:31.250Z,8.49
2018-01-25T09:55:31.823Z,8.53
2018-01-25T09:56:32.397Z,8.42
2018-01-25T09:57:32.969Z,8.53
2018-01-25T09:58:33.540Z,8.53
2018-01-25T09:59:34.112Z,8.51
2018-01-25T10:00:34.685Z,8.56
2018-01-25T10:01:35.258Z,8.55
2018-01-25T10:02:35.830Z,8.51
2018-01-25T10:03:36.401Z,8.58
2018-01-25T10:04:36.974Z,8.49
2018-01-25T10:05:37.548Z,8.66
2018-01-25T10:06:38.123Z,8.55
2018-01-25T10:07:38.695Z,8.64
2018-01-25T10:08:39.267Z,8.58
2018-01-25T10:09:39.854Z,8.64
2018-01-25T10:10:40.426Z,8.67
2018-01-25T10:11:41.000Z,8.64
2018-01-25T10:12:41.574Z,8.60
2018-01-25T10:13:42.147Z,8.85
2018-01-25T10:14:42.719Z,8.71
2018-01-25T10:15:43.293Z,8.74
2018-01-25T10:16:43.864Z,8.70
2018-01-25T10:17:44.439Z,8.63
2018-01-25T10:18:45.010Z,8.73
2018-01-25T10:19:45.582Z,8.74
2018-01-25T10:20:46.169Z,8.92
2018-01-25T10:21:46.745Z,8.87
2018-01-25T10:22:47.316Z,8.88
2018-01-25T10:23:47.888Z,8.89
2018-01-25T10:24:48.461Z,8.85
2018-01-25T10:25:49.050Z,8.87
2018-01-25T10:26:49.624Z,8.87
2018-01-25T10:27:50.200Z,8.95
2018-01-25T10:28:50.774Z,8.95
2018-01-25T10:29:51.362Z,8.95
2018-01-25T10:30:51.936Z,8.95
2018-01-25T10:31:52.511Z,8.89
2018-01-25T10:32:53.084Z,8.95
2018-01-25T10:33:53.658Z,9.08
2018-01-25T10:34:54.245Z,9.06
2018-01-25T10:35:54.832Z,9.04
2018-01-25T10:36:55.406Z,9.02
2018-01-25T10:37:55.980Z,9.08
2018-01-25T10:38:56.569Z,9.06
2018-01-25T10:39:57.141Z,9.08
2018-01-25T10:40:57.714Z,9.02
2018-01-25T10:41:58.287Z,9.11
2018-01-25T10:42:58.861Z,9.18
2018-01-25T10:43:59.433Z,9.10
2018-01-25T10:45:00.008Z,9.13
2018-01-25T10:46:00.580Z,9.11
2018-01-25T10:47:01.155Z,9.16
2018-01-25T10:48:01.745Z,9.10
2018-01-25T10:49:02.333Z,9.06
2018-01-25T10:50:02.909Z,9.19
2018-01-25T10:51:03.482Z,9.19
2018-01-25T10:52:04.057Z,9.18
2018-01-25T10:53:04.634Z,9.29
2018-01-25T10:54:05.208Z,9.19
2018-01-25T10:55:05.781Z,9.22
2018-01-25T10:56:06.355Z,9.19
2018-01-25T10:57:06.927Z,9.34
2018-01-25T10:58:07.501Z,9.29
2018-01-25T10:59:08.090Z,9.19
2018-01-25T11:00:08.664Z,9.25
2018-01-25T11:01:09.238Z,9.23
2018-01-25T11:02:09.813Z,9.26
2018-01-25T11:03:10.450Z,9.26
2018-01-25T11:04:10.977Z,9.26
2018-01-25T11:05:11.552Z,9.39
2018-01-25T11:06:12.141Z,9.36
2018-01-25T11:07:12.720Z,9.36
2018-01-25T11:08:13.308Z,9.39
2018-01-25T11:09:13.882Z,9.40
2018-01-25T11:10:14.458Z,9.39
2018-01-25T11:11:15.034Z,9.26
2018-01-25T11:12:15.609Z,9.41
2018-01-25T11:13:16.198Z,9.36
2018-01-25T11:14:16.788Z,9.47
2018-01-25T11:15:17.363Z,9.46
2018-01-25T11:16:17.940Z,9.46
2018-01-25T11:17:18.558Z,9.46
2018-01-25T11:18:19.107Z,9.43
2018-01-25T11:19:19.681Z,9.44
2018-01-25T11:20:20.255Z,9.58
2018-01-25T11:21:20.829Z,9.51
2018-01-25T11:22:21.405Z,9.51
2018-01-25T11:23:21.981Z,9.50
2018-01-25T11:24:22.556Z,9.62
2018-01-25T11:25:23.132Z,9.58
2018-01-25T11:26:23.708Z,9.50
2018-01-25T11:27:24.280Z,9.41
2018-01-25T11:28:24.857Z,9.51
2018-01-25T11:29:25.433Z,9.44
2018-01-25T11:30:26.010Z,9.58
2018-01-25T11:31:26.597Z,9.58
2018-01-25T11:32:27.184Z,9.47
2018-01-25T11:33:27.759Z,9.51
2018-01-25T11:34:28.336Z,9.56
2018-01-25T11:35:28.912Z,9.55
2018-01-25T11:36:29.488Z,9.54
2018-01-25T11:37:30.094Z,9.51
2018-01-25T11:38:30.638Z,9.55
2018-01-25T11:39:31.214Z,9.65
2018-01-25T11:40:31.792Z,9.68
2018-01-25T11:41:32.365Z,9.54
2018-01-25T11:42:32.941Z,9.58
2018-01-25T11:43:33.530Z,9.56
2018-01-25T11:44:34.107Z,9.68
2018-01-25T11:45:34.697Z,9.68
2018-01-25T11:46:35.271Z,9.54
2018-01-25T11:47:35.848Z,9.58
2018-01-25T11:48:36.425Z,9.62
2018-01-25T11:49:37.000Z,9.74
2018-01-25T11:50:37.576Z,9.66
2018-01-25T11:51:38.152Z,9.76
2018-01-25T11:52:38.727Z,9.82
2018-01-25T11:53:39.303Z,9.91
2018-01-25T11:54:39.879Z,9.86
2018-01-25T11:55:40.454Z,9.84
2018-01-25T11:56:41.031Z,9.77
2018-01-25T11:57:41.606Z,9.83
2018-01-25T11:58:42.184Z,9.95
2018-01-25T11:59:42.759Z,9.98
2018-01-25T12:00:43.340Z,9.79
2018-01-25T12:01:43.912Z,9.83
2018-01-25T12:02:44.485Z,9.83
2018-01-25T12:03:45.066Z,9.92
2018-01-25T12:04:45.636Z,9.94
2018-01-25T12:05:46.212Z,9.87
2018-01-25T12:06:46.787Z,10.01
2018-01-25T12:07:47.368Z,10.10
2018-01-25T12:08:47.942Z,10.19
2018-01-25T12:09:48.519Z,10.22
2018-01-25T12:10:49.095Z,10.02
2018-01-25T12:11:49.671Z,9.94
2018-01-25T12:12:50.246Z,9.97
2018-01-25T12:13:50.823Z,9.94
2018-01-25T12:14:51.399Z,9.91
2018-01-25T12:15:51.974Z,9.99
2018-01-25T12:16:52.552Z,10.05
2018-01-25T12:17:53.128Z,10.02
2018-01-25T12:18:53.705Z,10.10
2018-01-25T12:19:54.284Z,10.04
2018-01-25T12:20:54.861Z,10.02
2018-01-25T12:21:55.470Z,9.99
2018-01-25T12:22:56.015Z,10.01
2018-01-25T12:23:56.591Z,10.04
2018-01-25T12:24:57.167Z,10.02
2018-01-25T12:25:57.743Z,9.99
2018-01-25T12:26:58.321Z,9.98
2018-01-25T12:27:58.898Z,9.98
2018-01-25T12:28:59.473Z,10.07
2018-01-25T12:30:00.051Z,10.12
2018-01-25T12:31:00.627Z,10.13
2018-01-25T12:32:01.205Z,10.19
2018-01-25T12:33:01.781Z,10.09
2018-01-25T12:34:02.357Z,10.13
2018-01-25T12:35:02.934Z,10.19
2018-01-25T12:36:03.513Z,10.05
2018-01-25T12:37:04.088Z,10.19
2018-01-25T12:38:04.666Z,10.13
2018-01-25T12:39:05.244Z,10.01
2018-01-25T12:40:05.825Z,10.02
2018-01-25T12:41:06.398Z,9.98
2018-01-25T12:42:06.977Z,10.01
2018-01-25T12:43:07.550Z,10.10
2018-01-25T12:44:08.127Z,9.98
2018-01-25T12:45:08.703Z,10.09
2018-01-25T12:46:09.282Z,10.01
2018-01-25T12:47:09.877Z,9.98
2018-01-25T12:48:10.452Z,9.98
2018-01-25T12:49:11.036Z,9.99
2018-01-25T12:50:11.627Z,9.89
2018-01-25T12:51:12.201Z,9.94
2018-01-25T12:52:12.779Z,9.99
2018-01-25T12:53:13.371Z,9.94
2018-01-25T12:54:13.946Z,9.99
2018-01-25T12:55:14.520Z,9.99
2018-01-25T12:56:15.098Z,9.94
2018-01-25T12:57:15.676Z,9.89
2018-01-25T12:58:16.247Z,9.95
2018-01-25T12:59:16.825Z,9.99
2018-01-25T13:00:17.398Z,9.92
2018-01-25T13:01:17.972Z,9.99
2018-01-25T13:02:18.547Z,9.83
2018-01-25T13:03:19.123Z,10.02
2018-01-25T13:04:19.713Z,10.02
2018-01-25T13:05:20.290Z,9.98
2018-01-25T13:06:20.863Z,9.91
2018-01-25T13:07:21.439Z,9.91
2018-01-25T13:08:22.028Z,9.94
2018-01-25T13:09:22.604Z,9.92
2018-01-25T13:10:23.177Z,9.87
2018-01-25T13:11:23.764Z,9.91
2018-01-25T13:12:24.338Z,9.94
2018-01-25T13:13:24.913Z,9.98
2018-01-25T13:14:25.488Z,9.99
2018-01-25T13:15:26.064Z,10.02
2018-01-25T13:16:26.639Z,10.04
2018-01-25T13:17:27.216Z,10.17
2018-01-25T13:18:27.797Z,9.99
2018-01-25T13:19:28.381Z,10.16
2018-01-25T13:20:28.955Z,9.99
2018-01-25T13:21:29.533Z,10.01
2018-01-25T13:22:30.109Z,10.05
2018-01-25T13:23:30.683Z,9.99
2018-01-25T13:24:31.258Z,9.98
2018-01-25T13:25:31.847Z,9.99